createdAt,value
2018-11-07T00:02:28.642Z,11.20
2018-11-07T00:04:57.196Z,11.20
2018-11-07T00:07:25.717Z,11.10
2018-11-07T00:09:54.212Z,11.00
2018-11-07T00:12:22.715Z,11.00
2018-11-07T00:14:51.243Z,10.90
2018-11-07T00:17:19.768Z,11.00
2018-11-07T00:19:48.293Z,10.90
2018-11-07T00:22:16.820Z,10.90
2018-11-07T00:24:45.308Z,10.90
2018-11-07T00:27:13.811Z,10.80
2018-11-07T00:29:42.318Z,10.80
2018-11-07T00:32:10.816Z,10.80
2018-11-07T00:34:39.333Z,10.80
2018-11-07T00:37:07.869Z,10.80
2018-11-07T00:39:36.381Z,10.70
2018-11-07T00:42:04.981Z,10.70
2018-11-07T00:44:33.475Z,10.70
2018-11-07T00:47:01.965Z,10.70
2018-11-07T00:49:30.479Z,10.80
2018-11-07T00:51:59.001Z,10.80
2018-11-07T00:54:27.513Z,10.90
2018-11-07T00:56:56.007Z,10.90
2018-11-07T00:59:24.527Z,11.00
2018-11-07T01:01:53.045Z,11.00
2018-11-07T01:04:21.562Z,11.00
2018-11-07T01:06:50.113Z,11.00
2018-11-07T01:09:18.651Z,11.00
2018-11-07T01:11:47.110Z,11.00
2018-11-07T01:14:15.640Z,11.00
2018-11-07T01:16:44.191Z,10.90
2018-11-07T01:19:12.644Z,10.90
2018-11-07T01:21:41.143Z,10.90
2018-11-07T01:24:09.654Z,10.90
2018-11-07T01:26:38.140Z,10.90
2018-11-07T01:29:06.673Z,10.80
2018-11-07T01:31:35.169Z,10.90
2018-11-07T01:34:03.690Z,10.90
2018-11-07T01:36:32.224Z,10.90
2018-11-07T01:39:00.713Z,10.80
2018-11-07T01:41:29.248Z,10.80
2018-11-07T01:43:57.759Z,10.80
2018-11-07T01:46:26.270Z,10.70
2018-11-07T01:48:54.762Z,10.60
2018-11-07T01:51:23.318Z,10.60
2018-11-07T01:53:51.812Z,10.50
2018-11-07T01:56:20.306Z,10.50
2018-11-07T01:58:48.818Z,10.50
2018-11-07T02:01:17.300Z,10.50
2018-11-07T02:03:45.804Z,10.50
2018-11-07T02:06:14.302Z,10.50
2018-11-07T02:08:42.796Z,10.40
2018-11-07T02:11:11.304Z,10.40
2018-11-07T02:13:39.796Z,10.40
2018-11-07T02:16:08.298Z,10.40
2018-11-07T02:18:36.785Z,10.30
2018-11-07T02:21:05.355Z,10.30
2018-11-07T02:23:33.875Z,10.20
2018-11-07T02:26:02.396Z,10.20
2018-11-07T02:28:30.879Z,10.20
2018-11-07T02:30:59.411Z,10.20
2018-11-07T02:33:27.903Z,10.30
2018-11-07T02:35:56.421Z,10.30
2018-11-07T02:38:24.911Z,10.20
2018-11-07T02:40:53.420Z,10.20
2018-11-07T02:43:21.915Z,10.20
2018-11-07T02:45:50.418Z,10.10
2018-11-07T02:48:18.913Z,10.20
2018-11-07T02:50:47.424Z,10.10
2018-11-07T02:53:15.964Z,10.00
2018-11-07T02:55:44.441Z,9.90
2018-11-07T02:58:12.928Z,9.90
2018-11-07T03:00:41.430Z,9.90
2018-11-07T03:03:09.903Z,9.80
2018-11-07T03:05:38.412Z,9.70
2018-11-07T03:08:06.900Z,9.70
2018-11-07T03:10:35.451Z,9.80
2018-11-07T03:13:03.967Z,9.80
2018-11-07T03:15:32.480Z,9.80
2018-11-07T03:18:00.964Z,9.80
2018-11-07T03:20:29.462Z,9.70
2018-11-07T03:22:57.938Z,9.70
2018-11-07T03:25:26.418Z,9.70
2018-11-07T03:27:54.906Z,9.70
2018-11-07T03:30:23.376Z,9.70
2018-11-07T03:32:51.875Z,9.70
2018-11-07T03:35:26.407Z,9.70
2018-11-07T03:37:55.379Z,9.70
2018-11-07T03:40:24.312Z,9.70
2018-11-07T03:42:52.832Z,9.70
2018-11-07T03:45:26.653Z,9.70
2018-11-07T03:47:55.152Z,9.70
2018-11-07T03:50:23.657Z,9.50
2018-11-07T03:52:52.154Z,9.50
2018-11-07T03:55:20.635Z,9.60
2018-11-07T03:57:49.141Z,9.60
2018-11-07T04:00:17.662Z,9.70
2018-11-07T04:02:46.185Z,9.70
2018-11-07T04:05:14.651Z,9.60
2018-11-07T04:07:43.321Z,9.60
2018-11-07T04:10:11.812Z,9.50
2018-11-07T04:12:40.311Z,9.40
2018-11-07T04:15:09.415Z,9.40
2018-11-07T04:17:37.920Z,9.40
2018-11-07T04:20:07.543Z,9.40
2018-11-07T04:22:36.003Z,9.30
2018-11-07T04:25:04.842Z,9.40
2018-11-07T04:27:33.299Z,9.40
2018-11-07T04:30:01.785Z,9.40
2018-11-07T04:32:30.279Z,9.50
2018-11-07T04:34:58.782Z,9.50
2018-11-07T04:37:27.293Z,9.40
2018-11-07T04:39:55.778Z,9.40
2018-11-07T04:42:24.395Z,9.40
2018-11-07T04:44:52.914Z,9.40
2018-11-07T04:47:21.388Z,9.40
2018-11-07T04:49:49.868Z,9.50
2018-11-07T04:52:18.368Z,9.50
2018-11-07T04:54:46.860Z,9.50
2018-11-07T04:57:15.322Z,9.60
2018-11-07T04:59:43.830Z,9.60
2018-11-07T05:02:12.319Z,9.60
2018-11-07T05:04:40.808Z,9.70
2018-11-07T05:07:09.648Z,9.70
2018-11-07T05:09:38.145Z,9.70
2018-11-07T05:12:07.000Z,9.60
2018-11-07T05:14:35.504Z,9.60
2018-11-07T05:17:04.052Z,9.60
2018-11-07T05:19:32.545Z,9.50
2018-11-07T05:22:01.082Z,9.50
2018-11-07T05:24:29.593Z,9.50
2018-11-07T05:26:58.101Z,9.50
2018-11-07T05:29:26.597Z,9.50
2018-11-07T05:31:55.215Z,9.60
2018-11-07T05:34:23.699Z,9.60
2018-11-07T05:36:52.251Z,9.60
2018-11-07T05:39:20.759Z,9.70
2018-11-07T05:41:49.258Z,9.70
2018-11-07T05:44:17.767Z,9.80
2018-11-07T05:46:46.267Z,9.80
2018-11-07T05:49:14.779Z,9.90
2018-11-07T05:51:43.291Z,9.90
2018-11-07T05:54:11.768Z,10.00
2018-11-07T05:56:40.275Z,10.00
2018-11-07T05:59:09.513Z,10.00
2018-11-07T06:01:38.064Z,10.00
2018-11-07T06:04:06.975Z,10.00
2018-11-07T06:06:35.492Z,10.00
2018-11-07T06:09:05.548Z,10.00
2018-11-07T06:11:34.030Z,9.90
2018-11-07T06:14:02.588Z,9.90
2018-11-07T06:16:31.640Z,9.90
2018-11-07T06:19:00.164Z,9.80
2018-11-07T06:21:28.644Z,9.80
2018-11-07T06:23:57.172Z,9.80
2018-11-07T06:26:25.704Z,9.90
2018-11-07T06:28:54.218Z,9.90
2018-11-07T06:31:22.746Z,9.90
2018-11-07T06:33:51.295Z,9.90
2018-11-07T06:36:19.748Z,9.80
2018-11-07T06:38:48.243Z,9.80
2018-11-07T06:41:16.763Z,9.90
2018-11-07T06:43:45.269Z,9.80
2018-11-07T06:46:13.821Z,9.80
2018-11-07T06:48:42.309Z,9.80
2018-11-07T06:51:10.816Z,9.70
2018-11-07T06:53:39.353Z,9.80
2018-11-07T06:56:07.909Z,9.80
2018-11-07T06:58:36.419Z,9.90
2018-11-07T07:01:04.931Z,9.80
2018-11-07T07:03:33.439Z,9.80
2018-11-07T07:06:01.977Z,9.90
2018-11-07T07:08:30.469Z,9.90
2018-11-07T07:11:01.872Z,9.90
2018-11-07T07:13:30.562Z,9.90
2018-11-07T07:15:59.080Z,9.90
2018-11-07T07:18:27.584Z,9.90
2018-11-07T07:20:56.067Z,9.90
2018-11-07T07:23:24.575Z,9.90
2018-11-07T07:25:53.078Z,9.90
2018-11-07T07:28:21.571Z,9.90
2018-11-07T07:30:50.090Z,9.80
2018-11-07T07:33:18.631Z,9.80
2018-11-07T07:35:47.102Z,9.70
2018-11-07T07:38:15.646Z,9.80
2018-11-07T07:40:44.136Z,9.80
2018-11-07T07:43:12.638Z,9.80
2018-11-07T07:45:41.214Z,9.80
2018-11-07T07:48:09.660Z,9.80
2018-11-07T07:50:38.158Z,9.90
2018-11-07T07:53:06.866Z,9.90
2018-11-07T07:55:35.221Z,9.90
2018-11-07T07:58:03.712Z,9.90
2018-11-07T08:00:32.272Z,9.90
2018-11-07T08:03:00.784Z,9.80
2018-11-07T08:05:29.276Z,9.90
2018-11-07T08:07:57.764Z,9.90
2018-11-07T08:10:26.257Z,9.90
2018-11-07T08:12:54.761Z,9.90
2018-11-07T08:15:23.241Z,9.90
2018-11-07T08:17:51.733Z,9.90
2018-11-07T08:20:20.235Z,10.00
2018-11-07T08:22:49.227Z,10.10
2018-11-07T08:25:17.745Z,10.20
2018-11-07T08:27:46.335Z,10.20
2018-11-07T08:30:16.115Z,10.20
2018-11-07T08:32:44.601Z,10.20
2018-11-07T08:35:14.148Z,10.30
2018-11-07T08:37:43.525Z,10.30
2018-11-07T08:40:21.648Z,10.30
2018-11-07T08:42:50.821Z,10.40
2018-11-07T08:45:19.375Z,10.40
2018-11-07T08:47:48.337Z,10.40
2018-11-07T08:50:18.129Z,10.40
2018-11-07T08:52:47.350Z,10.50
2018-11-07T08:55:18.137Z,10.50
2018-11-07T08:57:46.685Z,10.50
2018-11-07T09:00:18.332Z,10.60
2018-11-07T09:02:47.108Z,10.60
2018-11-07T09:05:16.212Z,10.60
2018-11-07T09:07:45.392Z,10.60
2018-11-07T09:10:15.248Z,10.70
2018-11-07T09:12:43.789Z,10.70
2018-11-07T09:15:14.477Z,10.80
2018-11-07T09:17:43.020Z,10.70
2018-11-07T09:20:14.801Z,10.70
2018-11-07T09:22:43.282Z,10.70
2018-11-07T09:25:12.479Z,10.70
2018-11-07T09:27:41.113Z,10.60
2018-11-07T09:30:11.706Z,10.60
2018-11-07T09:32:40.277Z,10.60
2018-11-07T09:35:10.035Z,10.60
2018-11-07T09:37:38.564Z,10.60
2018-11-07T09:40:09.219Z,10.60
2018-11-07T09:42:38.520Z,10.60
2018-11-07T09:45:08.607Z,10.60
2018-11-07T09:47:37.302Z,10.60
2018-11-07T09:50:06.791Z,10.60
2018-11-07T09:52:35.450Z,10.70
2018-11-07T09:55:04.345Z,10.70
2018-11-07T09:57:32.861Z,10.70
2018-11-07T10:00:01.369Z,10.80
2018-11-07T10:02:29.867Z,10.70
2018-11-07T10:04:58.375Z,10.80
2018-11-07T10:07:26.897Z,10.80
2018-11-07T10:09:55.405Z,10.80
2018-11-07T10:12:23.956Z,10.90
2018-11-07T10:14:52.442Z,10.90
2018-11-07T10:17:20.967Z,11.00
2018-11-07T10:19:49.494Z,11.00
2018-11-07T10:22:18.002Z,11.00
2018-11-07T10:24:46.536Z,11.10
2018-11-07T10:27:15.296Z,11.10
2018-11-07T10:29:44.376Z,11.10
2018-11-07T10:32:12.474Z,11.20
2018-11-07T10:34:41.059Z,11.20
2018-11-07T10:37:09.475Z,11.30
2018-11-07T10:39:37.995Z,11.40
2018-11-07T10:42:06.520Z,11.40
2018-11-07T10:44:35.026Z,11.40
2018-11-07T10:47:03.540Z,11.50
2018-11-07T10:49:32.040Z,11.50
2018-11-07T10:52:00.541Z,11.60
2018-11-07T10:54:29.032Z,11.80
2018-11-07T10:56:57.534Z,12.00
2018-11-07T10:59:26.052Z,12.00
2018-11-07T11:01:59.780Z,12.10
2018-11-07T11:04:28.272Z,12.20
2018-11-07T11:06:56.783Z,12.20
2018-11-07T11:09:25.288Z,12.30
2018-11-07T11:11:54.134Z,12.40
2018-11-07T11:14:22.797Z,12.40
2018-11-07T11:16:51.355Z,12.50
2018-11-07T11:19:19.855Z,12.60
2018-11-07T11:21:48.350Z,12.70
2018-11-07T11:24:16.848Z,12.80
2018-11-07T11:26:45.355Z,12.80
2018-11-07T11:29:13.830Z,12.90
2018-11-07T11:31:42.369Z,12.90
2018-11-07T11:34:11.117Z,12.90
2018-11-07T11:36:39.412Z,13.00
2018-11-07T11:39:09.647Z,12.90
2018-11-07T11:41:38.140Z,12.90
2018-11-07T11:44:06.943Z,13.00
2018-11-07T11:46:35.501Z,13.10
2018-11-07T11:49:04.515Z,13.10
2018-11-07T11:51:33.387Z,13.20
2018-11-07T11:54:01.952Z,13.20
2018-11-07T11:56:30.751Z,13.30
2018-11-07T11:58:59.465Z,13.30
2018-11-07T12:01:28.393Z,13.30
2018-11-07T12:03:56.905Z,13.30
2018-11-07T12:06:25.467Z,13.40
2018-11-07T12:08:53.972Z,13.30
2018-11-07T12:11:22.474Z,13.40
2018-11-07T12:13:50.984Z,13.30
2018-11-07T12:16:19.496Z,13.30
2018-11-07T12:18:48.025Z,13.30
2018-11-07T12:21:16.645Z,13.50
2018-11-07T12:23:45.168Z,13.50
2018-11-07T12:26:13.656Z,13.50
2018-11-07T12:28:42.160Z,13.50
2018-11-07T12:31:10.676Z,13.50
2018-11-07T12:33:39.201Z,13.50
2018-11-07T12:36:07.793Z,13.50
2018-11-07T12:38:36.362Z,13.40
2018-11-07T12:41:04.937Z,13.50
2018-11-07T12:43:33.470Z,13.60
2018-11-07T12:46:01.994Z,13.60
2018-11-07T12:48:30.492Z,13.60
2018-11-07T12:50:59.017Z,13.70
2018-11-07T12:53:27.553Z,13.70
2018-11-07T12:55:56.054Z,13.80
2018-11-07T12:58:24.678Z,13.80
2018-11-07T13:00:53.085Z,13.90
2018-11-07T13:03:23.864Z,13.80
2018-11-07T13:05:52.352Z,13.60
2018-11-07T13:08:20.884Z,13.40
2018-11-07T13:10:49.402Z,13.40
2018-11-07T13:13:17.898Z,13.40
2018-11-07T13:15:48.659Z,13.60
2018-11-07T13:18:17.203Z,13.80
2018-11-07T13:20:45.701Z,14.00
2018-11-07T13:23:14.240Z,14.00
2018-11-07T13:25:42.759Z,14.00
2018-11-07T13:28:11.333Z,14.30
2018-11-07T13:30:39.788Z,14.20
2018-11-07T13:33:08.327Z,14.20
2018-11-07T13:35:36.839Z,14.10
2018-11-07T13:38:05.736Z,14.10
2018-11-07T13:40:33.931Z,14.00
2018-11-07T13:43:02.435Z,13.80
2018-11-07T13:45:31.082Z,13.90
2018-11-07T13:47:59.587Z,13.90
2018-11-07T13:50:28.161Z,13.80
2018-11-07T13:52:56.744Z,14.00
2018-11-07T13:55:25.270Z,13.90
2018-11-07T13:57:53.824Z,13.80
2018-11-07T14:00:23.462Z,13.70
2018-11-07T14:02:52.884Z,13.70
2018-11-07T14:05:21.543Z,13.70
2018-11-07T14:07:49.990Z,13.90
2018-11-07T14:10:20.188Z,14.00
2018-11-07T14:12:48.947Z,14.10
2018-11-07T14:15:17.518Z,14.10
2018-11-07T14:17:46.277Z,14.10
2018-11-07T14:20:14.833Z,14.00
2018-11-07T14:22:43.427Z,13.80
2018-11-07T14:25:12.511Z,13.90
2018-11-07T14:27:41.310Z,13.80
2018-11-07T14:30:11.093Z,13.80
2018-11-07T14:32:42.958Z,13.70
2018-11-07T14:35:11.503Z,13.50
2018-11-07T14:37:40.457Z,13.50
2018-11-07T14:40:09.043Z,13.50
2018-11-07T14:42:37.879Z,13.40
2018-11-07T14:45:07.406Z,13.40
2018-11-07T14:47:36.148Z,13.40
2018-11-07T14:50:06.078Z,13.30
2018-11-07T14:52:34.620Z,13.20
2018-11-07T14:55:03.179Z,13.20
2018-11-07T14:57:32.058Z,13.20
2018-11-07T15:00:00.628Z,13.30
2018-11-07T15:02:29.211Z,13.30
2018-11-07T15:04:57.740Z,13.20
2018-11-07T15:07:26.325Z,13.20
2018-11-07T15:09:54.896Z,13.20
2018-11-07T15:12:23.423Z,13.20
2018-11-07T15:14:51.956Z,13.20
2018-11-07T15:17:20.539Z,13.20
2018-11-07T15:19:49.090Z,13.20
2018-11-07T15:22:17.662Z,13.10
2018-11-07T15:24:46.250Z,13.10
2018-11-07T15:27:14.817Z,13.10
2018-11-07T15:29:43.365Z,13.10
2018-11-07T15:32:11.890Z,13.00
2018-11-07T15:34:40.443Z,13.00
2018-11-07T15:37:09.401Z,13.00
2018-11-07T15:39:38.318Z,13.00
2018-11-07T15:42:07.275Z,13.10
2018-11-07T15:44:35.862Z,13.00
2018-11-07T15:47:04.497Z,13.00
2018-11-07T15:49:33.075Z,12.90
2018-11-07T15:52:01.797Z,12.80
2018-11-07T15:54:30.337Z,12.70
2018-11-07T15:56:59.005Z,12.70
2018-11-07T15:59:27.631Z,12.60
2018-11-07T16:01:56.237Z,12.60
2018-11-07T16:04:24.886Z,12.60
2018-11-07T16:06:53.433Z,12.60
2018-11-07T16:09:22.012Z,12.50
2018-11-07T16:11:50.551Z,12.50
2018-11-07T16:14:19.116Z,12.40
2018-11-07T16:16:47.671Z,12.40
2018-11-07T16:19:16.213Z,12.40
2018-11-07T16:21:44.755Z,12.30
2018-11-07T16:24:13.330Z,12.30
2018-11-07T16:26:41.888Z,12.20
2018-11-07T16:29:10.476Z,12.10
2018-11-07T16:31:39.052Z,12.10
2018-11-07T16:34:07.622Z,12.10
2018-11-07T16:36:36.158Z,12.00
2018-11-07T16:39:08.113Z,12.10
2018-11-07T16:41:36.832Z,12.10
2018-11-07T16:44:05.386Z,12.10
2018-11-07T16:46:33.828Z,12.00
2018-11-07T16:49:02.413Z,12.00
2018-11-07T16:51:30.984Z,12.00
2018-11-07T16:53:59.502Z,12.00
2018-11-07T16:56:28.090Z,11.90
2018-11-07T16:58:56.690Z,11.90
2018-11-07T17:01:25.270Z,11.90
2018-11-07T17:03:53.844Z,11.90
2018-11-07T17:06:22.405Z,11.80
2018-11-07T17:08:50.924Z,11.90
2018-11-07T17:11:19.554Z,11.80
2018-11-07T17:13:48.084Z,11.80
2018-11-07T17:16:16.596Z,11.80
2018-11-07T17:18:45.096Z,11.80
2018-11-07T17:21:13.626Z,11.80
2018-11-07T17:23:42.146Z,11.80
2018-11-07T17:26:10.645Z,11.80
2018-11-07T17:28:39.165Z,11.80
2018-11-07T17:31:07.678Z,11.80
2018-11-07T17:33:36.227Z,11.80
2018-11-07T17:36:05.219Z,11.80
2018-11-07T17:38:33.785Z,11.80
2018-11-07T17:41:02.313Z,11.80
2018-11-07T17:43:31.197Z,11.70
2018-11-07T17:45:59.767Z,11.70
2018-11-07T17:48:28.282Z,11.70
2018-11-07T17:50:56.814Z,11.60
2018-11-07T17:53:25.327Z,11.70
2018-11-07T17:55:53.840Z,11.70
2018-11-07T17:58:22.398Z,11.70
2018-11-07T18:00:50.976Z,11.70
2018-11-07T18:03:19.519Z,11.70
2018-11-07T18:05:48.070Z,11.70
2018-11-07T18:08:16.665Z,11.70
2018-11-07T18:10:45.197Z,11.70
2018-11-07T18:13:13.757Z,11.70
2018-11-07T18:15:42.406Z,11.70
2018-11-07T18:18:10.985Z,11.70
2018-11-07T18:20:39.511Z,11.70
2018-11-07T18:23:08.070Z,11.70
2018-11-07T18:25:36.607Z,11.70
2018-11-07T18:28:05.487Z,11.70
2018-11-07T18:30:34.053Z,11.70
2018-11-07T18:33:02.612Z,11.70
2018-11-07T18:35:31.173Z,11.70
2018-11-07T18:37:59.700Z,11.70
2018-11-07T18:40:28.249Z,11.60
2018-11-07T18:42:56.791Z,11.50
2018-11-07T18:45:25.312Z,11.60
2018-11-07T18:47:53.823Z,11.60
2018-11-07T18:50:22.366Z,11.60
2018-11-07T18:52:50.939Z,11.60
2018-11-07T18:55:19.509Z,11.50
2018-11-07T18:57:48.086Z,11.40
2018-11-07T19:00:18.053Z,11.40
2018-11-07T19:02:47.176Z,11.40
2018-11-07T19:05:15.743Z,11.40
2018-11-07T19:07:44.370Z,11.40
2018-11-07T19:10:15.270Z,11.40
2018-11-07T19:12:44.352Z,11.50
2018-11-07T19:15:13.872Z,11.50
2018-11-07T19:17:43.494Z,11.50
2018-11-07T19:20:13.153Z,11.60
2018-11-07T19:22:41.808Z,11.60
2018-11-07T19:28:07.357Z,11.60
2018-11-07T19:30:35.947Z,11.60
2018-11-07T19:33:04.679Z,11.70
2018-11-07T19:35:33.090Z,11.70
2018-11-07T19:38:01.679Z,11.60
2018-11-07T19:40:30.214Z,11.60
2018-11-07T19:42:58.808Z,11.60
2018-11-07T19:45:27.347Z,11.60
2018-11-07T19:47:55.916Z,11.50
2018-11-07T19:50:24.464Z,11.50
2018-11-07T19:52:53.267Z,11.50
2018-11-07T19:55:23.320Z,11.40
2018-11-07T19:57:56.315Z,11.30
2018-11-07T20:00:24.843Z,11.30
2018-11-07T20:02:53.403Z,11.40
2018-11-07T20:05:21.956Z,11.40
2018-11-07T20:07:50.780Z,11.40
2018-11-07T20:10:20.497Z,11.40
2018-11-07T20:12:49.090Z,11.40
2018-11-07T20:15:18.866Z,11.40
2018-11-07T20:17:47.466Z,11.40
2018-11-07T20:20:16.144Z,11.40
2018-11-07T20:22:44.730Z,11.40
2018-11-07T20:25:14.071Z,11.40
2018-11-07T20:27:42.943Z,11.40
2018-11-07T20:30:13.398Z,11.30
2018-11-07T20:32:42.177Z,11.30
2018-11-07T20:35:12.886Z,11.40
2018-11-07T20:37:41.403Z,11.40
2018-11-07T20:40:12.357Z,11.40
2018-11-07T20:42:40.948Z,11.40
2018-11-07T20:45:10.574Z,11.40
2018-11-07T20:47:39.481Z,11.50
2018-11-07T20:50:10.589Z,11.40
2018-11-07T20:52:39.595Z,11.30
2018-11-07T20:55:08.652Z,11.30
2018-11-07T20:57:37.307Z,11.30
2018-11-07T21:00:14.591Z,11.30
2018-11-07T21:02:43.629Z,11.40
2018-11-07T21:05:12.257Z,11.40
2018-11-07T21:07:41.249Z,11.40
2018-11-07T21:10:12.425Z,11.30
2018-11-07T21:12:41.434Z,11.30
2018-11-07T21:15:11.124Z,11.20
2018-11-07T21:17:40.312Z,11.20
2018-11-07T21:20:09.162Z,11.30
2018-11-07T21:22:37.908Z,11.30
2018-11-07T21:25:06.617Z,11.20
2018-11-07T21:27:35.151Z,11.20
2018-11-07T21:30:04.117Z,11.20
2018-11-07T21:32:32.626Z,11.20
2018-11-07T21:35:01.202Z,11.20
2018-11-07T21:37:29.710Z,11.10
2018-11-07T21:39:58.259Z,11.10
2018-11-07T21:42:27.001Z,11.10
2018-11-07T21:44:55.511Z,11.10
2018-11-07T21:47:24.053Z,11.10
2018-11-07T21:49:52.601Z,11.10
2018-11-07T21:52:21.125Z,11.10
2018-11-07T21:54:49.745Z,11.10
2018-11-07T21:57:18.216Z,11.00
2018-11-07T21:59:46.752Z,11.00
2018-11-07T22:02:15.291Z,11.00
2018-11-07T22:04:43.809Z,11.00
2018-11-07T22:07:12.328Z,11.10
2018-11-07T22:09:40.860Z,11.10
2018-11-07T22:12:09.385Z,11.00
2018-11-07T22:14:37.883Z,10.90
2018-11-07T22:17:06.445Z,10.90
2018-11-07T22:19:34.961Z,10.90
2018-11-07T22:22:03.495Z,10.90
2018-11-07T22:24:32.027Z,10.90
2018-11-07T22:27:00.578Z,10.90
2018-11-07T22:29:29.084Z,10.90
2018-11-07T22:31:57.621Z,11.00
2018-11-07T22:34:26.181Z,10.90
2018-11-07T22:36:54.703Z,10.80
2018-11-07T22:39:23.232Z,10.80
2018-11-07T22:41:51.753Z,10.80
2018-11-07T22:44:20.283Z,10.80
2018-11-07T22:46:48.818Z,10.70
2018-11-07T22:49:17.352Z,10.70
2018-11-07T22:51:45.902Z,10.70
2018-11-07T22:54:14.466Z,10.70
2018-11-07T22:56:43.018Z,10.70
2018-11-07T22:59:11.586Z,10.80
2018-11-07T23:01:41.201Z,10.80
2018-11-07T23:04:10.041Z,10.80
2018-11-07T23:06:39.305Z,10.80
2018-11-07T23:09:10.367Z,10.80
2018-11-07T23:11:40.457Z,10.80
2018-11-07T23:14:10.493Z,10.80
2018-11-07T23:16:39.088Z,10.80
2018-11-07T23:19:07.885Z,10.80
2018-11-07T23:21:36.485Z,10.80
2018-11-07T23:24:05.376Z,10.80
2018-11-07T23:26:34.039Z,10.80
2018-11-07T23:29:02.642Z,10.80
2018-11-07T23:31:31.408Z,10.80
2018-11-07T23:34:00.727Z,10.70
2018-11-07T23:36:29.796Z,10.70
2018-11-07T23:38:58.293Z,10.60
2018-11-07T23:41:26.797Z,10.60
2018-11-07T23:43:55.335Z,10.60
2018-11-07T23:46:23.986Z,10.60
2018-11-07T23:48:52.513Z,10.70
2018-11-07T23:51:21.061Z,10.70
2018-11-07T23:53:49.551Z,10.70
2018-11-07T23:56:18.073Z,10.70
2018-11-07T23:58:46.622Z,10.80
